Time;durP1;ratioP1;P1;durP2;ratioP2;P2;SDS_P1;SDS_P2;PMS_P1;PMS_P2;Temp;Humidity;BMP_temperature;BMP_pressure;BME280_temperature;BME280_humidity;BME280_pressure;Samples;Min_cycle;Max_cycle;Signal;HPM_P1;HPM_P2
2023/12/12 00:02:09;;;;;;;6.93;1.93;;;;;;;7.32;100.00;99918.19;4973239;28;20195;-75
2023/12/12 00:04:35;;;;;;;8.00;2.30;;;;;;;7.35;100.00;99914.72;4977527;28;20711;-76
2023/12/12 00:07:02;;;;;;;7.60;2.20;;;;;;;7.35;100.00;99905.09;4974449;28;20205;-75
2023/12/12 00:09:28;;;;;;;10.73;2.13;;;;;;;7.44;100.00;99907.00;4966061;28;20255;-75
2023/12/12 00:11:55;;;;;;;7.23;2.03;;;;;;;7.33;100.00;99879.56;4974704;28;20199;-76
2023/12/12 00:14:21;;;;;;;9.70;2.40;;;;;;;7.46;100.00;99890.34;4965842;28;20666;-76
2023/12/12 00:16:48;;;;;;;10.47;2.40;;;;;;;7.50;100.00;99891.28;4977733;28;20305;-76
2023/12/12 00:19:14;;;;;;;9.77;2.33;;;;;;;7.62;100.00;99899.44;4979149;28;20199;-75
2023/12/12 00:21:41;;;;;;;8.77;2.23;;;;;;;7.50;100.00;99892.16;4992346;28;20212;-76
2023/12/12 00:24:07;;;;;;;14.43;3.43;;;;;;;7.64;100.00;99894.19;4968152;28;20283;-76
2023/12/12 00:26:34;;;;;;;8.50;2.13;;;;;;;7.58;100.00;99891.41;4982637;28;20648;-76
2023/12/12 00:29:00;;;;;;;9.93;2.23;;;;;;;7.57;100.00;99910.72;4990563;28;20568;-76
2023/12/12 00:31:26;;;;;;;6.37;2.20;;;;;;;7.48;100.00;99898.28;4967876;28;20222;-75
2023/12/12 00:33:53;;;;;;;5.97;2.03;;;;;;;7.45;100.00;99901.75;4975523;28;20260;-76
2023/12/12 00:36:19;;;;;;;12.03;2.43;;;;;;;7.37;100.00;99887.56;4997168;28;20198;-76
2023/12/12 00:38:46;;;;;;;7.97;2.20;;;;;;;7.43;100.00;99894.69;4979384;28;20638;-75
2023/12/12 00:41:12;;;;;;;8.83;2.83;;;;;;;7.47;100.00;99893.88;4979215;28;20684;-76
2023/12/12 00:43:40;;;;;;;11.13;2.70;;;;;;;7.46;100.00;99895.63;4996045;28;20216;-76
2023/12/12 00:46:10;;;;;;;9.47;2.30;;;;;;;7.49;100.00;99894.78;4978782;28;20581;-76
2023/12/12 00:48:36;;;;;;;7.00;2.13;;;;;;;7.47;100.00;99893.88;4970181;28;20246;-76
2023/12/12 00:51:03;;;;;;;7.63;2.33;;;;;;;7.45;100.00;99893.84;4997000;28;20220;-76
2023/12/12 00:53:29;;;;;;;13.10;3.03;;;;;;;7.41;100.00;99901.66;4984098;28;20208;-75
2023/12/12 00:55:55;;;;;;;11.67;2.80;;;;;;;7.53;100.00;99908.03;4991023;28;20206;-76
2023/12/12 00:58:22;;;;;;;9.80;2.57;;;;;;;7.44;100.00;99909.63;4984106;28;20233;-75
2023/12/12 01:00:48;;;;;;;8.13;2.30;;;;;;;7.41;100.00;99902.56;4975241;28;20311;-76
2023/12/12 01:03:15;;;;;;;10.13;2.50;;;;;;;7.28;100.00;99884.75;4981036;28;20261;-75
2023/12/12 01:05:41;;;;;;;11.40;2.40;;;;;;;7.35;100.00;99909.47;4982452;28;20211;-75
2023/12/12 01:08:08;;;;;;;12.67;4.00;;;;;;;7.33;100.00;99909.44;4994023;28;20197;-76
2023/12/12 01:10:35;;;;;;;9.90;2.77;;;;;;;7.25;100.00;99897.00;4983907;28;20689;-75
2023/12/12 01:13:01;;;;;;;9.03;2.60;;;;;;;7.29;100.00;99896.19;4980830;28;20204;-75
2023/12/12 01:15:28;;;;;;;7.03;2.10;;;;;;;7.30;100.00;99904.09;4980504;28;20208;-75
2023/12/12 01:17:54;;;;;;;11.73;2.17;;;;;;;7.33;100.00;99906.78;4976473;28;20229;-76
2023/12/12 01:20:21;;;;;;;7.23;2.17;;;;;;;7.39;100.00;99917.44;4986313;28;20220;-76
2023/12/12 01:22:47;;;;;;;7.93;2.77;;;;;;;7.41;100.00;99896.41;4979433;28;20205;-76
2023/12/12 01:25:14;;;;;;;12.23;2.43;;;;;;;7.39;100.00;99898.13;4970849;28;20737;-76
2023/12/12 01:27:40;;;;;;;11.40;2.50;;;;;;;7.47;100.00;99902.66;4999814;28;20195;-76
2023/12/12 01:30:07;;;;;;;8.17;2.30;;;;;;;7.45;100.00;99883.31;4973999;28;20673;-76
2023/12/12 01:32:34;;;;;;;12.80;2.43;;;;;;;7.47;100.00;99902.66;4978202;28;20213;-76
2023/12/12 01:35:01;;;;;;;9.13;2.83;;;;;;;7.59;100.00;99895.81;4978215;28;20228;-76
2023/12/12 01:37:27;;;;;;;9.73;2.87;;;;;;;7.53;100.00;99893.97;4983424;28;20223;-76
2023/12/12 01:39:54;;;;;;;6.80;2.63;;;;;;;7.48;100.00;99893.00;4982045;28;20239;-77
2023/12/12 01:42:20;;;;;;;8.87;2.27;;;;;;;7.33;100.00;99880.47;4979895;28;20201;-76
2023/12/12 01:44:47;;;;;;;10.17;2.60;;;;;;;7.44;100.00;99891.19;4975417;28;20202;-76
2023/12/12 01:47:13;;;;;;;10.97;2.57;;;;;;;7.53;100.00;99891.34;4973857;28;20649;-76
2023/12/12 01:49:40;;;;;;;8.30;2.63;;;;;;;7.50;100.00;99892.16;4974524;28;20660;-76
2023/12/12 01:52:07;;;;;;;8.67;2.07;;;;;;;7.58;100.00;99891.41;4978751;28;20248;-76
2023/12/12 01:54:38;;;;;;;8.60;2.70;;;;;;;7.61;100.00;99888.84;4975356;28;20240;-76
2023/12/12 01:57:05;;;;;;;6.43;2.43;;;;;;;7.44;100.00;99884.16;4980142;28;20226;-76
2023/12/12 01:59:32;;;;;;;8.43;2.57;;;;;;;7.30;100.00;99867.25;4966015;28;20221;-76
2023/12/12 02:01:59;;;;;;;8.80;2.87;;;;;;;7.44;100.00;99885.91;4993102;28;20655;-76
2023/12/12 02:04:26;;;;;;;11.00;3.00;;;;;;;7.41;100.00;99886.75;4975527;28;20546;-76
2023/12/12 02:06:56;;;;;;;9.37;2.40;;;;;;;7.27;100.00;99882.09;4973135;28;20562;-76
2023/12/12 02:09:24;;;;;;;9.87;2.67;;;;;;;7.12;100.00;99878.31;4972348;28;20194;-76
2023/12/12 02:11:51;;;;;;;8.97;2.90;;;;;;;6.80;100.00;99863.63;4972472;28;20205;-76
2023/12/12 02:14:18;;;;;;;9.43;3.00;;;;;;;6.68;100.00;99874.78;4976607;28;20200;-76
2023/12/12 02:16:45;;;;;;;12.43;3.53;;;;;;;6.43;100.00;99894.44;4981334;28;20676;-76
2023/12/12 02:19:11;;;;;;;13.67;3.07;;;;;;;6.15;100.00;99884.16;4980772;28;20205;-76
2023/12/12 02:21:38;;;;;;;10.67;2.70;;;;;;;5.94;100.00;99881.91;4968984;28;20205;-76
2023/12/12 02:24:05;;;;;;;8.90;2.80;;;;;;;5.83;100.00;99886.88;4977586;28;20207;-76
2023/12/12 02:26:31;;;;;;;6.87;2.50;;;;;;;5.66;100.00;99886.47;4982945;28;20483;-76
2023/12/12 02:28:58;;;;;;;10.93;2.43;;;;;;;5.53;100.00;99880.88;4987248;28;20205;-76
2023/12/12 02:31:25;;;;;;;10.23;2.37;;;;;;;5.42;100.00;99874.47;4974524;28;20633;-76
2023/12/12 02:33:51;;;;;;;6.10;2.13;;;;;;;5.39;100.00;99877.91;4981677;28;20201;-76
2023/12/12 02:36:20;;;;;;;8.87;3.07;;;;;;;5.57;100.00;99894.09;4974500;28;20597;-76
2023/12/12 02:38:49;;;;;;;7.03;2.80;;;;;;;5.61;100.00;99887.22;4979083;28;20221;-76
2023/12/12 02:41:16;;;;;;;8.23;2.40;;;;;;;5.58;100.00;99889.75;4984797;28;20220;-76
2023/12/12 02:43:42;;;;;;;8.33;3.00;;;;;;;5.58;100.00;99900.25;4966963;28;20212;-76
2023/12/12 02:46:09;;;;;;;10.73;2.77;;;;;;;5.51;100.00;99900.94;4984458;28;20236;-76
2023/12/12 02:48:35;;;;;;;9.77;2.60;;;;;;;5.39;100.00;99888.41;4973975;28;20496;-76
2023/12/12 02:51:02;;;;;;;11.33;2.47;;;;;;;5.45;100.00;99896.44;4974799;28;20220;-76
2023/12/12 02:53:28;;;;;;;10.57;2.90;;;;;;;5.40;100.00;99891.91;4973330;28;20211;-77
2023/12/12 02:55:55;;;;;;;8.13;3.03;;;;;;;5.38;100.00;99885.75;5002383;28;20209;-76
2023/12/12 02:58:21;;;;;;;8.43;2.17;;;;;;;5.43;100.00;99894.63;4982196;28;20216;-76
2023/12/12 03:00:48;;;;;;;9.10;2.50;;;;;;;5.58;100.00;99895.88;4991507;28;20586;-76
2023/12/12 03:03:14;;;;;;;7.40;2.37;;;;;;;5.65;100.00;99896.94;4980386;28;20943;-76
2023/12/12 03:05:41;;;;;;;6.10;2.23;;;;;;;5.66;100.00;99894.38;4979400;28;20204;-76
2023/12/12 03:08:07;;;;;;;11.17;2.77;;;;;;;5.79;100.00;99900.81;4975671;28;20189;-76
2023/12/12 03:10:33;;;;;;;10.93;2.70;;;;;;;5.87;100.00;99901.88;4979280;28;20307;-76
2023/12/12 03:13:00;;;;;;;10.90;3.23;;;;;;;5.96;100.00;99888.97;4977371;28;20226;-76
2023/12/12 03:15:27;;;;;;;9.20;3.30;;;;;;;6.11;100.00;99891.09;4973364;28;20453;-76
2023/12/12 03:17:53;;;;;;;8.63;3.07;;;;;;;6.24;100.00;99890.50;4969747;28;20231;-76
2023/12/12 03:20:21;;;;;;;8.63;2.80;;;;;;;6.41;100.00;99876.88;4982106;28;20782;-76
2023/12/12 03:22:48;;;;;;;7.23;2.40;;;;;;;6.48;100.00;99889.28;4978700;28;20524;-76
2023/12/12 03:25:14;;;;;;;6.67;2.43;;;;;;;6.48;100.00;99892.81;4980297;28;20297;-76
2023/12/12 03:27:41;;;;;;;7.70;2.60;;;;;;;6.49;100.00;99898.94;4993967;28;20656;-76
2023/12/12 03:30:08;;;;;;;6.03;1.93;;;;;;;6.47;100.00;99898.91;4973063;28;20296;-76
2023/12/12 03:32:34;;;;;;;9.17;2.40;;;;;;;6.37;100.00;99885.50;4993809;28;20711;-76
2023/12/12 03:35:01;;;;;;;8.77;2.30;;;;;;;6.40;100.00;99906.63;4983617;28;20259;-76
2023/12/12 03:37:27;;;;;;;6.97;2.70;;;;;;;6.38;100.00;99903.06;4976725;28;20807;-76
2023/12/12 03:39:54;;;;;;;13.00;3.23;;;;;;;6.32;100.00;99888.03;4978036;28;20719;-76
2023/12/12 03:42:20;;;;;;;10.67;3.43;;;;;;;6.38;100.00;99895.19;4980323;28;20584;-75
2023/12/12 03:44:47;;;;;;;6.73;2.37;;;;;;;6.25;100.00;99892.28;4980080;28;20286;-75
2023/12/12 03:47:13;;;;;;;6.50;2.63;;;;;;;6.20;100.00;99893.94;4970643;28;20277;-75
2023/12/12 03:49:40;;;;;;;7.53;2.40;;;;;;;6.05;100.00;99897.94;4969079;28;20412;-75
2023/12/12 03:52:07;;;;;;;5.67;2.33;;;;;;;5.86;100.00;99888.69;4976866;28;20674;-75
2023/12/12 03:54:33;;;;;;;12.37;2.37;;;;;;;5.68;100.00;99885.63;4983319;28;20203;-76
2023/12/12 03:57:00;;;;;;;8.40;2.20;;;;;;;5.52;100.00;99892.22;4979439;28;20271;-76
2023/12/12 03:59:26;;;;;;;7.20;2.53;;;;;;;5.46;100.00;99884.19;4989615;28;20228;-76
2023/12/12 04:01:53;;;;;;;9.93;2.57;;;;;;;5.43;100.00;99881.50;4981074;28;20550;-76
2023/12/12 04:04:19;;;;;;;9.27;3.17;;;;;;;5.45;100.00;99896.44;4971694;28;20199;-75
2023/12/12 04:06:47;;;;;;;9.50;2.73;;;;;;;5.45;100.00;99891.19;4980130;28;20204;-75
2023/12/12 04:09:14;;;;;;;8.50;2.30;;;;;;;5.50;100.00;99891.28;4971887;28;20715;-75
2023/12/12 04:11:40;;;;;;;7.67;2.20;;;;;;;5.56;100.00;99883.56;4976872;28;20321;-75
2023/12/12 04:14:07;;;;;;;9.27;2.60;;;;;;;5.71;100.00;99894.47;4965979;28;20631;-76
2023/12/12 04:16:33;;;;;;;10.47;2.47;;;;;;;5.80;100.00;99885.91;4982768;28;20204;-76
2023/12/12 04:19:00;;;;;;;9.97;2.77;;;;;;;5.94;100.00;99887.16;4972188;28;20228;-76
2023/12/12 04:21:27;;;;;;;7.73;3.17;;;;;;;6.14;100.00;99878.00;4973558;28;20217;-76
2023/12/12 04:23:53;;;;;;;10.47;2.53;;;;;;;6.46;100.00;99877.84;4965903;28;20272;-76
2023/12/12 04:26:20;;;;;;;11.77;2.73;;;;;;;6.39;100.00;99858.38;4978428;28;20225;-76
2023/12/12 04:28:46;;;;;;;15.90;2.80;;;;;;;6.46;100.00;99862.06;4964008;28;20221;-76
2023/12/12 04:31:16;;;;;;;16.50;3.07;;;;;;;6.47;100.00;99863.84;4975413;28;20308;-76
2023/12/12 04:33:43;;;;;;;15.27;3.37;;;;;;;6.51;100.00;99857.78;4974338;28;20208;-76
2023/12/12 04:36:14;;;;;;;13.00;2.70;;;;;;;6.52;100.00;99851.66;4979222;28;20399;-76
2023/12/12 04:38:41;;;;;;;7.20;2.03;;;;;;;6.55;100.00;99849.97;4978676;28;20228;-76
2023/12/12 04:41:08;;;;;;;9.07;3.10;;;;;;;6.55;100.00;99842.09;4969992;28;20710;-76
2023/12/12 04:43:35;;;;;;;7.47;2.70;;;;;;;6.55;100.00;99833.31;4971817;28;20580;-76
2023/12/12 04:46:02;;;;;;;12.10;2.90;;;;;;;6.63;100.00;99833.47;4973557;28;20656;-76
2023/12/12 04:48:28;;;;;;;13.10;2.83;;;;;;;6.65;100.00;99832.63;4992382;28;20198;-76
2023/12/12 04:50:55;;;;;;;11.37;2.67;;;;;;;6.68;100.00;99837.06;4997351;28;20222;-75
2023/12/12 04:53:21;;;;;;;9.67;2.90;;;;;;;6.67;100.00;99841.44;4993742;28;20249;-76
2023/12/12 04:55:48;;;;;;;8.23;2.33;;;;;;;6.59;100.00;99832.53;4989117;28;20678;-76
2023/12/12 04:58:14;;;;;;;6.17;2.33;;;;;;;6.60;100.00;99834.28;4978658;28;20319;-76
2023/12/12 05:00:40;;;;;;;10.63;3.43;;;;;;;6.57;100.00;99837.75;4977627;28;20256;-76
2023/12/12 05:03:07;;;;;;;11.43;3.03;;;;;;;6.58;100.00;99838.63;4982028;28;20197;-76
2023/12/12 05:05:33;;;;;;;11.53;3.07;;;;;;;6.51;100.00;99826.22;4977656;28;20205;-76
2023/12/12 05:08:00;;;;;;;11.43;3.17;;;;;;;6.76;100.00;99832.84;4973431;28;20225;-76
2023/12/12 05:10:27;;;;;;;9.53;3.07;;;;;;;6.72;100.00;99829.25;4963604;28;20260;-76
2023/12/12 05:12:54;;;;;;;8.57;2.70;;;;;;;6.73;100.00;99828.41;4993305;28;20199;-76
2023/12/12 05:15:20;;;;;;;16.00;2.77;;;;;;;6.71;100.00;99821.34;4977248;28;20666;-76
2023/12/12 05:17:47;;;;;;;8.27;2.43;;;;;;;6.74;100.00;99822.28;4983220;28;20254;-76
2023/12/12 05:20:14;;;;;;;7.83;2.30;;;;;;;6.69;100.00;99831.84;4971258;28;20230;-76
2023/12/12 05:22:41;;;;;;;6.83;2.13;;;;;;;6.64;100.00;99815.06;4969300;28;20290;-76
2023/12/12 05:25:07;;;;;;;7.90;2.53;;;;;;;6.65;100.00;99818.59;4976631;28;20209;-76
2023/12/12 05:27:34;;;;;;;13.73;2.90;;;;;;;6.72;100.00;99817.84;4971684;28;20202;-76
2023/12/12 05:30:00;;;;;;;13.63;2.83;;;;;;;6.70;100.00;99819.56;4977506;28;20223;-76
2023/12/12 05:32:27;;;;;;;12.60;2.33;;;;;;;6.65;100.00;99815.97;4982248;28;20239;-76
2023/12/12 05:34:54;;;;;;;14.30;3.00;;;;;;;6.65;100.00;99813.34;4975681;28;20201;-76
2023/12/12 05:37:20;;;;;;;7.07;2.20;;;;;;;6.66;100.00;99817.75;4969287;28;20262;-77
2023/12/12 05:39:47;;;;;;;13.00;2.60;;;;;;;6.65;100.00;99801.06;4973998;28;20431;-77
2023/12/12 05:42:13;;;;;;;8.10;2.50;;;;;;;6.68;100.00;99810.75;4972993;28;20289;-76
2023/12/12 05:47:09;;;;;;;10.90;2.40;;;;;;;6.58;100.00;99817.59;4952605;28;20275;-75
2023/12/12 05:49:35;;;;;;;12.30;2.77;;;;;;;6.56;100.00;99821.94;4948672;28;20740;-75
2023/12/12 05:52:04;;;;;;;7.73;2.83;;;;;;;6.58;100.00;99822.84;4933411;28;20199;-75
2023/12/12 05:54:30;;;;;;;12.23;2.97;;;;;;;6.57;100.00;99819.34;4951845;28;20269;-73
2023/12/12 05:56:57;;;;;;;11.50;3.00;;;;;;;6.55;100.00;99821.06;4953162;28;20284;-73
2023/12/12 05:59:23;;;;;;;6.23;2.80;;;;;;;6.54;100.00;99824.53;4953114;28;20235;-74
2023/12/12 06:01:50;;;;;;;11.40;3.00;;;;;;;6.49;100.00;99822.69;4936169;28;20206;-74
2023/12/12 06:04:17;;;;;;;12.83;2.60;;;;;;;6.39;100.00;99820.69;4950326;28;20198;-74
2023/12/12 06:06:44;;;;;;;9.93;2.60;;;;;;;6.26;100.00;99816.91;4949767;28;20917;-73
2023/12/12 06:09:11;;;;;;;9.63;3.00;;;;;;;6.15;100.00;99819.31;4943740;28;20833;-73
2023/12/12 06:11:37;;;;;;;7.60;2.77;;;;;;;5.96;100.00;99818.00;4941864;28;20674;-73
2023/12/12 06:14:05;;;;;;;10.10;2.47;;;;;;;5.76;100.00;99818.41;4945350;28;20218;-74
2023/12/12 06:16:33;;;;;;;9.23;2.50;;;;;;;5.55;100.00;99809.13;4944581;28;20733;-74
2023/12/12 06:18:59;;;;;;;8.70;2.40;;;;;;;5.48;100.00;99819.47;4927946;28;20218;-74
2023/12/12 06:21:26;;;;;;;14.43;3.23;;;;;;;5.40;100.00;99810.50;4941433;28;20634;-74
2023/12/12 06:23:52;;;;;;;9.57;2.77;;;;;;;5.40;100.00;99810.50;4953336;28;20741;-75
2023/12/12 06:26:21;;;;;;;12.73;3.07;;;;;;;5.42;100.00;99801.81;4922449;28;22258;-75
2023/12/12 06:28:48;;;;;;;11.53;2.60;;;;;;;5.42;100.00;99807.06;4945320;28;20213;-74
2023/12/12 06:31:14;;;;;;;12.67;3.37;;;;;;;5.45;100.00;99801.00;4946763;28;20308;-74
2023/12/12 06:33:41;;;;;;;8.50;2.70;;;;;;;5.50;100.00;99789.75;4943064;28;20269;-75
2023/12/12 06:36:09;;;;;;;12.07;3.10;;;;;;;5.48;100.00;99790.56;4943468;28;20685;-75
2023/12/12 06:38:38;;;;;;;9.53;3.23;;;;;;;5.48;100.00;99795.81;4943133;28;20226;-76
2023/12/12 06:41:04;;;;;;;11.73;3.27;;;;;;;5.45;100.00;99785.25;4944921;28;20310;-76
2023/12/12 06:43:31;;;;;;;13.70;3.30;;;;;;;5.42;100.00;99793.94;4946681;28;20261;-75
2023/12/12 06:45:58;;;;;;;6.57;3.13;;;;;;;5.19;100.00;99789.84;4934829;28;20213;-75
2023/12/12 06:48:24;;;;;;;12.03;2.87;;;;;;;5.16;100.00;99787.16;4936997;28;21623;-76
2023/12/12 06:50:52;;;;;;;10.00;2.50;;;;;;;4.91;100.00;99781.31;4946894;28;21635;-76
2023/12/12 06:53:19;;;;;;;8.97;2.77;;;;;;;4.74;100.00;99779.94;4940940;28;20378;-79
2023/12/12 06:55:47;;;;;;;8.43;2.50;;;;;;;4.54;100.00;99774.19;4925603;29;20252;-75
2023/12/12 06:58:17;;;;;;;7.97;2.77;;;;;;;4.40;100.00;99781.69;4925811;28;20211;-76
2023/12/12 07:00:44;;;;;;;9.53;2.77;;;;;;;4.29;100.00;99788.31;4940818;28;20245;-76
2023/12/12 07:03:10;;;;;;;8.73;2.57;;;;;;;4.20;100.00;99788.06;4944248;28;20251;-75
2023/12/12 07:05:37;;;;;;;13.77;3.40;;;;;;;4.17;100.00;99793.22;4942526;28;20670;-76
2023/12/12 07:08:04;;;;;;;12.83;3.07;;;;;;;4.08;100.00;99798.19;4942451;28;20289;-81
2023/12/12 07:10:32;;;;;;;13.27;3.10;;;;;;;4.02;100.00;99805.88;4928970;29;20409;-76
2023/12/12 07:12:59;;;;;;;12.23;3.03;;;;;;;4.00;100.00;99797.06;4929509;28;20290;-76
2023/12/12 07:15:27;;;;;;;9.17;3.23;;;;;;;3.98;100.00;99798.75;4950774;28;20202;-76
2023/12/12 07:17:54;;;;;;;13.33;3.30;;;;;;;4.04;100.00;99791.09;4939697;28;20200;-76
2023/12/12 07:20:21;;;;;;;12.87;4.10;;;;;;;4.33;100.00;99786.66;4950721;28;20727;-76
2023/12/12 07:22:47;;;;;;;12.90;3.47;;;;;;;4.43;100.00;99785.22;4950012;28;20890;-76
2023/12/12 07:25:14;;;;;;;13.43;5.00;;;;;;;4.37;100.00;99784.19;4951393;28;20576;-76
2023/12/12 07:27:41;;;;;;;12.33;4.40;;;;;;;4.39;100.00;99777.25;4948582;28;20205;-76
2023/12/12 07:30:08;;;;;;;14.00;4.20;;;;;;;4.36;100.00;99778.91;4945608;28;20225;-76
2023/12/12 07:32:34;;;;;;;11.07;4.17;;;;;;;4.34;100.00;99773.59;4934139;29;20237;-76
2023/12/12 07:35:01;;;;;;;15.47;4.67;;;;;;;4.40;100.00;99765.03;4951629;28;20213;-76
2023/12/12 07:37:27;;;;;;;20.17;3.77;;;;;;;4.35;100.00;99778.00;4948768;28;20204;-76
2023/12/12 07:39:54;;;;;;;12.23;3.70;;;;;;;4.32;100.00;99769.16;4949086;28;20272;-76
2023/12/12 07:42:20;;;;;;;12.20;4.47;;;;;;;4.33;100.00;99766.59;4950244;28;20285;-76
2023/12/12 07:44:47;;;;;;;18.97;4.80;;;;;;;4.47;100.00;99772.25;4944604;28;20222;-77
2023/12/12 07:47:15;;;;;;;17.73;4.30;;;;;;;4.65;100.00;99771.84;4939484;28;20207;-76
2023/12/12 07:49:42;;;;;;;13.87;3.83;;;;;;;4.88;100.00;99765.47;4948271;28;20311;-73
2023/12/12 07:52:08;;;;;;;13.97;4.30;;;;;;;5.18;100.00;99762.72;4932699;28;20199;-73
2023/12/12 07:54:36;;;;;;;13.97;4.10;;;;;;;5.31;100.00;99767.44;4920280;29;20195;-73
2023/12/12 07:57:03;;;;;;;14.10;4.03;;;;;;;5.50;100.00;99768.75;4950388;28;20207;-74
2023/12/12 07:59:30;;;;;;;13.57;3.87;;;;;;;5.55;100.00;99771.47;4946908;28;20233;-73
2023/12/12 08:01:56;;;;;;;13.43;4.57;;;;;;;5.62;100.00;99776.06;4924970;28;20213;-73
2023/12/12 08:04:23;;;;;;;15.33;4.90;;;;;;;5.67;100.00;99774.41;4943511;28;20267;-73
2023/12/12 08:06:50;;;;;;;13.70;4.33;;;;;;;5.80;100.00;99786.97;4944890;28;20195;-73
2023/12/12 08:09:16;;;;;;;15.00;4.73;;;;;;;5.85;100.00;99781.81;4945344;28;20202;-73
2023/12/12 08:11:43;;;;;;;14.97;4.93;;;;;;;5.95;100.00;99784.69;4941986;28;20200;-73
2023/12/12 08:14:09;;;;;;;20.70;5.13;;;;;;;6.04;100.00;99778.78;4941402;28;20731;-73
2023/12/12 08:16:35;;;;;;;19.73;5.60;;;;;;;6.14;100.00;99775.50;4927988;28;20209;-73
2023/12/12 08:19:02;;;;;;;16.97;5.10;;;;;;;6.27;100.00;99774.00;4940013;28;20231;-73
2023/12/12 08:21:29;;;;;;;22.80;5.13;;;;;;;6.38;100.00;99763.69;4940643;28;20228;-73
2023/12/12 08:23:56;;;;;;;22.03;4.57;;;;;;;6.52;100.00;99757.84;4940038;28;20213;-73
2023/12/12 08:26:22;;;;;;;13.27;4.30;;;;;;;6.65;100.00;99756.34;4922183;28;20654;-73
2023/12/12 08:28:49;;;;;;;18.13;4.80;;;;;;;6.74;100.00;99751.25;4944661;28;20194;-79
2023/12/12 08:31:15;;;;;;;21.70;4.43;;;;;;;6.76;100.00;99748.63;4945758;28;20316;-77
2023/12/12 08:33:43;;;;;;;17.23;4.57;;;;;;;6.75;100.00;99746.88;4945775;28;20573;-72
2023/12/12 08:36:10;;;;;;;13.43;4.33;;;;;;;6.79;100.00;99746.06;4940557;28;20214;-72
2023/12/12 08:38:37;;;;;;;15.57;4.87;;;;;;;6.77;100.00;99751.28;4941803;28;20195;-72
2023/12/12 08:41:04;;;;;;;19.47;4.57;;;;;;;6.75;100.00;99753.00;4941300;28;20312;-73
2023/12/12 08:43:36;;;;;;;18.37;4.07;;;;;;;6.77;100.00;99753.94;4940301;28;20206;-74
2023/12/12 08:46:05;;;;;;;15.17;4.00;;;;;;;6.84;100.00;99755.84;4941006;28;20682;-72
2023/12/12 08:48:32;;;;;;;14.03;4.20;;;;;;;6.85;100.00;99761.97;4940844;28;20674;-73
2023/12/12 08:50:58;;;;;;;11.20;4.07;;;;;;;6.86;100.00;99755.84;4942545;28;20333;-72
2023/12/12 08:53:26;;;;;;;17.23;4.03;;;;;;;6.83;100.00;99746.16;4925280;28;20203;-72
2023/12/12 08:55:55;;;;;;;15.47;4.73;;;;;;;6.91;100.00;99749.81;4926247;28;20677;-73
2023/12/12 08:58:25;;;;;;;11.20;4.00;;;;;;;6.94;100.00;99745.47;4941967;28;20209;-72
2023/12/12 09:00:53;;;;;;;15.00;4.40;;;;;;;6.88;100.00;99736.59;4943102;28;20293;-74
2023/12/12 09:03:19;;;;;;;10.93;3.93;;;;;;;6.87;100.00;99732.19;4941162;28;20272;-72
2023/12/12 09:05:46;;;;;;;12.27;4.10;;;;;;;6.94;100.00;99741.09;4942740;28;20269;-73
2023/12/12 09:08:13;;;;;;;16.00;4.50;;;;;;;6.90;100.00;99734.88;4944385;28;20833;-74
2023/12/12 09:10:39;;;;;;;13.33;4.23;;;;;;;6.90;100.00;99723.47;4944337;28;20212;-74
2023/12/12 09:13:14;;;;;;;13.93;4.47;;;;;;;6.94;100.00;99706.88;4945860;28;20673;-74
2023/12/12 09:15:41;;;;;;;16.87;4.63;;;;;;;6.94;100.00;99696.34;4945210;28;20370;-71
2023/12/12 09:18:07;;;;;;;14.73;4.33;;;;;;;6.99;100.00;99688.50;4944003;28;20292;-71
2023/12/12 09:20:46;;;;;;;14.80;4.43;;;;;;;6.98;100.00;99681.47;4944235;28;20309;-72
2023/12/12 09:23:13;;;;;;;11.13;4.17;;;;;;;6.91;100.00;99681.38;4947355;28;20198;-71
2023/12/12 09:25:39;;;;;;;11.47;4.30;;;;;;;6.88;100.00;99673.44;4945110;28;20194;-71
2023/12/12 09:28:06;;;;;;;18.17;4.60;;;;;;;6.93;100.00;99672.63;4945418;28;20340;-72
2023/12/12 09:30:32;;;;;;;12.47;4.70;;;;;;;7.01;100.00;99676.25;4919409;28;20663;-72
2023/12/12 09:32:59;;;;;;;14.93;4.60;;;;;;;7.04;100.00;99671.03;4944995;28;20740;-71
2023/12/12 09:35:25;;;;;;;15.53;4.63;;;;;;;7.18;100.00;99682.66;4947082;28;20207;-73
2023/12/12 09:37:52;;;;;;;16.10;4.60;;;;;;;7.22;100.00;99672.22;4950424;28;20214;-72
2023/12/12 09:40:18;;;;;;;10.90;4.57;;;;;;;7.34;100.00;99654.81;4950294;28;20232;-71
2023/12/12 09:42:47;;;;;;;16.97;4.57;;;;;;;7.41;100.00;99651.41;4948814;28;20685;-71
2023/12/12 09:45:15;;;;;;;14.53;5.30;;;;;;;7.50;100.00;99655.06;4950601;28;20210;-71
2023/12/12 09:47:43;;;;;;;17.10;5.17;;;;;;;7.58;100.00;99649.00;4950169;28;20198;-73
2023/12/12 09:50:10;;;;;;;19.23;4.73;;;;;;;7.68;100.00;99643.00;4949209;28;20219;-72
2023/12/12 09:52:37;;;;;;;20.40;5.87;;;;;;;7.76;100.00;99641.34;4943279;28;20560;-72
2023/12/12 09:55:05;;;;;;;17.83;5.20;;;;;;;7.98;100.00;99637.19;4944252;28;20205;-75
2023/12/12 09:57:32;;;;;;;17.97;4.63;;;;;;;8.05;100.00;99634.69;4926107;28;20338;-71
2023/12/12 10:00:00;;;;;;;14.83;4.43;;;;;;;8.10;100.00;99630.34;4944262;28;20254;-73
2023/12/12 10:02:30;;;;;;;10.33;4.40;;;;;;;8.12;100.00;99615.41;4944423;28;20297;-75
2023/12/12 10:04:57;;;;;;;15.17;4.20;;;;;;;8.16;100.00;99616.31;4946469;28;20634;-76
2023/12/12 10:07:25;;;;;;;13.90;5.00;;;;;;;8.24;100.00;99613.75;4943983;28;20670;-76
2023/12/12 10:09:51;;;;;;;14.10;4.53;;;;;;;8.25;100.00;99607.63;4944223;28;20254;-74
2023/12/12 10:12:18;;;;;;;15.17;4.63;;;;;;;8.37;100.00;99592.81;4946006;28;20260;-73
2023/12/12 10:14:45;;;;;;;20.37;5.77;;;;;;;8.37;100.00;99584.03;4947768;28;20209;-74
2023/12/12 10:17:11;;;;;;;14.47;4.70;;;;;;;8.51;100.00;99581.53;4927444;28;20201;-73
2023/12/12 10:19:41;;;;;;;15.37;4.70;;;;;;;8.55;100.00;99584.19;4948792;28;20271;-73
2023/12/12 10:22:08;;;;;;;16.20;5.37;;;;;;;8.66;100.00;99573.72;4948270;28;20198;-79
2023/12/12 10:24:36;;;;;;;18.63;5.17;;;;;;;8.70;100.00;99567.59;4943632;28;20207;-74
2023/12/12 10:27:03;;;;;;;15.20;5.00;;;;;;;8.78;100.00;99568.53;4943184;28;20241;-74
2023/12/12 10:29:31;;;;;;;12.77;4.00;;;;;;;8.82;100.00;99566.81;4943558;28;20903;-74
2023/12/12 10:31:59;;;;;;;14.87;4.33;;;;;;;8.83;100.00;99569.47;4943446;28;20832;-74
2023/12/12 10:34:31;;;;;;;20.40;4.57;;;;;;;8.76;100.00;99570.28;4939654;28;20297;-74
2023/12/12 10:37:01;;;;;;;13.03;4.90;;;;;;;8.58;100.00;99563.13;4943427;28;20580;-74
2023/12/12 10:39:31;;;;;;;16.80;4.53;;;;;;;8.50;100.00;99574.47;4945554;28;20315;-75
2023/12/12 10:41:57;;;;;;;12.27;4.50;;;;;;;8.49;100.00;99565.69;4945019;28;20711;-74
2023/12/12 10:44:32;;;;;;;20.77;4.90;;;;;;;8.38;100.00;99560.28;4941081;28;20364;-74
2023/12/12 10:47:06;;;;;;;16.20;4.50;;;;;;;8.35;100.00;99556.75;4945181;28;20302;-76
2023/12/12 10:49:32;;;;;;;20.67;5.33;;;;;;;8.27;100.00;99543.47;4939815;28;20253;-73
2023/12/12 10:52:05;;;;;;;12.90;4.73;;;;;;;8.26;100.00;99539.06;4943424;28;20670;-81
2023/12/12 10:54:36;;;;;;;11.13;4.20;;;;;;;8.18;100.00;99539.00;4932506;28;20206;-74
2023/12/12 10:57:04;;;;;;;15.97;5.00;;;;;;;8.14;100.00;99536.31;4943320;28;20209;-75
2023/12/12 10:59:34;;;;;;;15.80;4.97;;;;;;;8.06;100.00;99530.97;4943235;28;20597;-74
2023/12/12 11:02:21;;;;;;;13.93;4.57;;;;;;;7.97;100.00;99533.50;4935756;28;20398;-74
2023/12/12 11:04:49;;;;;;;15.37;4.23;;;;;;;7.91;100.00;99517.63;4946519;28;20210;-73
2023/12/12 11:07:15;;;;;;;20.87;5.97;;;;;;;7.84;100.00;99523.69;4927410;28;20295;-72
2023/12/12 11:09:43;;;;;;;20.10;7.00;;;;;;;7.74;100.00;99516.56;4939351;28;20262;-73
2023/12/12 11:12:11;;;;;;;33.07;9.60;;;;;;;7.72;100.00;99502.50;4946214;28;20203;-72
2023/12/12 11:14:39;;;;;;;30.33;8.13;;;;;;;7.70;100.00;99494.59;4943078;28;20872;-72
2023/12/12 11:17:09;;;;;;;21.40;6.33;;;;;;;7.78;100.00;99499.94;4942270;28;20435;-71
2023/12/12 11:19:36;;;;;;;13.57;5.13;;;;;;;7.79;100.00;99491.16;4943006;28;20677;-72
2023/12/12 11:22:03;;;;;;;15.40;5.13;;;;;;;7.80;100.00;99493.78;4944847;28;20194;-72
2023/12/12 11:25:08;;;;;;;14.93;4.87;;;;;;;7.72;100.00;99500.75;4944779;28;20306;-72
2023/12/12 11:27:39;;;;;;;12.83;4.77;;;;;;;7.71;100.00;99496.34;4942851;28;20655;-73
2023/12/12 11:30:06;;;;;;;21.03;7.80;;;;;;;7.70;100.00;99498.97;4943209;28;21063;-73
2023/12/12 11:32:34;;;;;;;24.27;8.57;;;;;;;7.73;100.00;99496.38;4941670;28;20198;-73